Portada
METAR-TAF:

METAR-TAF

Aeroports :

West Plains Municipal Airport

West Plains, Missouri, Estats Units d'Amèrica

latitud: 36-52-45N, longitud: 091-54-18W, altitud: 374 m

Observació

L'informe es va fer fa 22 minuts, a les 02:53 UTC
Vent 5 kt del Sud/Sud-Est
Temperatura 29°C
Humitat 62%
Pressió 1015 hPa
Visibilitat: 16.1 km
Cel clar

METAR: KUNO 250253Z AUTO 15005KT 10SM CLR 29/21 A2996 RMK AO2 SLP126 T02890211 53005

Hora: 22:15 (03:15 UTC)


TAF: manca

Observacions i pronòstics meteorològics de més de 4000 aeroports (METAR i TAF).

Les estacions disponibles són els punts grocs i vermells al mapa.

Posi el ratolí al punt desitjat per veure el nom de l'estació.

Feu clic per veure les observacions i els pronòstics meteorològics.

Per canviar el mapa: feu clic els botons verds amb una creu de color negre per apropar; al botó verd amb un guió per allunyar la imatge; o en les fletxes verdes per a mapes adjacents.


METAR-TAF: